Time;durP1;ratioP1;P1;durP2;ratioP2;P2;SDS_P1;SDS_P2;PMS_P1;PMS_P2;Temp;Humidity;BMP_temperature;BMP_pressure;BME280_temperature;BME280_humidity;BME280_pressure;Samples;Min_cycle;Max_cycle;Signal;HPM_P1;HPM_P2
2023/08/05 00:00:59;;;;;;;26.10;18.40;;;742.40;2432.00;;;;;;5115705;28;20098;-78
2023/08/05 00:03:25;;;;;;;25.80;18.80;;;742.40;2432.00;;;;;;5115681;28;20057;-72
2023/08/05 00:05:51;;;;;;;23.35;17.50;;;717.70;2432.00;;;;;;5115811;28;20406;-73
2023/08/05 00:08:16;;;;;;;23.05;17.98;;;717.70;2432.00;;;;;;5115537;28;20016;-76
2023/08/05 00:10:43;;;;;;;22.23;18.20;;;717.50;2432.00;;;;;;5115384;28;20108;-74
2023/08/05 00:13:09;;;;;;;25.20;18.27;;;717.50;2432.00;;;;;;5114281;28;20504;-73
2023/08/05 00:15:35;;;;;;;23.30;18.48;;;717.60;2432.00;;;;;;5115187;28;20024;-72
2023/08/05 00:18:00;;;;;;;25.35;18.85;;;717.50;2432.00;;;;;;5115427;28;20030;-72
2023/08/05 00:20:26;;;;;;;26.38;18.90;;;717.50;2432.00;;;;;;5115365;28;20080;-72
2023/08/05 00:22:52;;;;;;;23.52;18.73;;;717.50;2432.00;;;;;;5115081;28;20020;-72
2023/08/05 00:25:18;;;;;;;27.40;19.08;;;717.50;2432.00;;;;;;5114999;28;20088;-71
2023/08/05 00:27:44;;;;;;;23.27;18.90;;;717.50;2432.00;;;;;;5114994;28;20028;-73
2023/08/05 00:30:10;;;;;;;23.92;19.23;;;717.40;2432.00;;;;;;5114934;28;20019;-73
2023/08/05 00:32:36;;;;;;;23.13;19.13;;;717.40;2432.00;;;;;;5114951;28;20103;-73
2023/08/05 00:35:06;;;;;;;22.17;19.85;;;717.20;2432.00;;;;;;5113039;28;20034;-73
2023/08/05 00:37:33;;;;;;;22.80;18.50;;;717.20;2432.00;;;;;;5115040;28;20024;-73
2023/08/05 00:39:59;;;;;;;23.15;19.33;;;717.20;2432.00;;;;;;5114813;28;20351;-72
2023/08/05 00:42:28;;;;;;;22.52;19.45;;;717.10;2432.00;;;;;;5114971;27;20057;-73
2023/08/05 00:44:54;;;;;;;24.00;19.10;;;717.10;2432.00;;;;;;5114709;28;20046;-73
2023/08/05 00:47:20;;;;;;;20.55;17.50;;;717.20;2432.00;;;;;;5114866;27;20019;-73
2023/08/05 00:49:49;;;;;;;19.00;16.67;;;717.20;2432.00;;;;;;5114583;28;20089;-73
2023/08/05 00:52:16;;;;;;;20.42;17.13;;;717.10;2432.00;;;;;;5114496;28;20016;-71
2023/08/05 00:54:43;;;;;;;19.52;17.13;;;717.10;2432.00;;;;;;5114864;28;20491;-76
2023/08/05 00:57:11;;;;;;;23.27;19.23;;;717.00;2432.00;;;;;;5114431;28;20016;-72
2023/08/05 00:59:37;;;;;;;26.92;17.63;;;717.10;2432.00;;;;;;5114235;28;20031;-72
2023/08/05 01:02:03;;;;;;;22.80;16.17;;;717.10;2432.00;;;;;;5114566;28;20114;-76
2023/08/05 01:04:29;;;;;;;24.05;17.60;;;717.10;2432.00;;;;;;5114517;28;20034;-72
2023/08/05 01:06:58;;;;;;;21.25;17.35;;;717.10;2432.00;;;;;;5114310;28;20024;-72
2023/08/05 01:09:24;;;;;;;21.08;18.63;;;716.90;2432.00;;;;;;5114238;27;20047;-74
2023/08/05 01:11:50;;;;;;;23.58;18.15;;;716.90;2432.00;;;;;;5114346;28;20110;-77
2023/08/05 01:14:16;;;;;;;25.27;18.95;;;692.10;2432.00;;;;;;5113220;28;20051;-71
2023/08/05 01:16:41;;;;;;;22.85;17.10;;;692.10;2432.00;;;;;;5113576;28;20027;-76
2023/08/05 01:19:26;;;;;;;18.25;16.13;;;692.00;2432.00;;;;;;5113569;28;20019;-72
2023/08/05 01:22:23;;;;;;;19.92;14.95;;;691.90;2432.00;;;;;;5113450;28;20054;-75
2023/08/05 01:25:27;;;;;;;15.27;12.45;;;691.70;2432.00;;;;;;5113084;27;20062;-74
2023/08/05 01:27:54;;;;;;;15.10;12.13;;;691.50;2432.00;;;;;;5113419;28;20024;-72
2023/08/05 01:30:22;;;;;;;16.33;10.93;;;691.40;2432.00;;;;;;5113355;28;20024;-73
2023/08/05 01:32:49;;;;;;;12.50;8.50;;;691.30;2432.00;;;;;;5113368;28;20568;-72
2023/08/05 01:35:16;;;;;;;13.80;7.93;;;691.20;2432.00;;;;;;5113212;28;20076;-73
2023/08/05 01:37:41;;;;;;;10.15;7.88;;;691.20;2432.00;;;;;;5113231;28;20024;-73
2023/08/05 01:40:08;;;;;;;13.85;8.10;;;666.50;2432.00;;;;;;5113398;28;20024;-73
2023/08/05 01:42:33;;;;;;;16.10;7.35;;;666.50;2432.00;;;;;;5113277;28;20023;-72
2023/08/05 01:44:59;;;;;;;10.20;6.70;;;691.20;2432.00;;;;;;5111860;28;20434;-75
2023/08/05 01:47:25;;;;;;;14.13;7.00;;;666.50;2432.00;;;;;;5113208;28;20024;-73
2023/08/05 01:49:50;;;;;;;9.32;6.28;;;666.50;2432.00;;;;;;5113194;28;20019;-72
2023/08/05 01:52:16;;;;;;;10.18;6.38;;;666.30;2432.00;;;;;;5113003;28;20373;-74
2023/08/05 01:54:41;;;;;;;10.55;5.85;;;666.20;2432.00;;;;;;5113227;28;20031;-72
2023/08/05 01:57:07;;;;;;;11.02;5.93;;;665.80;2432.00;;;;;;5113189;28;20362;-73
2023/08/05 01:59:33;;;;;;;11.82;6.38;;;666.20;2432.00;;;;;;5112977;28;20119;-74
2023/08/05 02:01:58;;;;;;;9.82;7.03;;;666.10;2432.00;;;;;;5112986;28;20023;-72
2023/08/05 02:04:24;;;;;;;15.05;7.25;;;666.20;2432.00;;;;;;5113016;28;20032;-72
2023/08/05 02:06:50;;;;;;;11.90;6.50;;;666.30;2432.00;;;;;;5113081;28;20147;-72
2023/08/05 02:09:16;;;;;;;9.73;6.20;;;666.20;2432.00;;;;;;5112725;28;20051;-72
2023/08/05 02:11:41;;;;;;;9.73;5.90;;;666.20;2432.00;;;;;;5112866;28;20445;-76
2023/08/05 02:14:07;;;;;;;11.80;6.50;;;666.30;2432.00;;;;;;5112755;28;20028;-72
2023/08/05 02:16:34;;;;;;;10.90;6.88;;;666.30;2432.00;;;;;;5112971;28;20386;-73
2023/08/05 02:18:59;;;;;;;12.13;7.20;;;666.20;2432.00;;;;;;5112848;28;20051;-73
2023/08/05 02:21:25;;;;;;;8.63;6.03;;;666.30;2432.00;;;;;;5112725;28;20114;-76
2023/08/05 02:23:52;;;;;;;8.77;6.90;;;665.90;2432.00;;;;;;5112775;28;20042;-74
2023/08/05 02:26:17;;;;;;;8.90;5.80;;;666.10;2432.00;;;;;;5112773;28;20023;-73
2023/08/05 02:28:44;;;;;;;10.20;6.57;;;666.00;2432.00;;;;;;5112811;28;20034;-73
2023/08/05 02:31:10;;;;;;;13.52;6.95;;;666.00;2432.00;;;;;;5112803;28;20023;-73
2023/08/05 02:33:36;;;;;;;8.07;6.55;;;666.10;2432.00;;;;;;5112708;28;20560;-73
2023/08/05 02:36:02;;;;;;;12.48;7.18;;;666.20;2432.00;;;;;;5113360;28;20031;-77
2023/08/05 02:38:28;;;;;;;11.77;6.90;;;666.20;2432.00;;;;;;5116467;28;20140;-77
2023/08/05 02:40:55;;;;;;;8.88;6.05;;;666.20;2432.00;;;;;;5116574;28;20629;-73
2023/08/05 02:43:20;;;;;;;15.50;7.38;;;666.20;2432.00;;;;;;5116393;28;20107;-73
2023/08/05 02:45:53;;;;;;;9.00;6.78;;;666.20;2432.00;;;;;;5114881;28;20116;-77
2023/08/05 02:48:19;;;;;;;9.23;6.50;;;665.70;2432.00;;;;;;5116540;28;20024;-73
2023/08/05 02:50:44;;;;;;;9.90;6.90;;;665.90;2432.00;;;;;;5116347;28;20388;-74
2023/08/05 02:53:10;;;;;;;10.18;6.82;;;665.90;2432.00;;;;;;5116170;28;20104;-77
2023/08/05 02:55:36;;;;;;;9.60;5.97;;;665.90;2432.00;;;;;;5116512;28;20649;-73
2023/08/05 02:58:01;;;;;;;9.40;5.93;;;665.90;2432.00;;;;;;5116143;28;20419;-73
2023/08/05 03:00:27;;;;;;;11.45;6.57;;;665.70;2432.00;;;;;;5116304;28;20030;-75
2023/08/05 03:02:53;;;;;;;7.93;6.05;;;665.90;2432.00;;;;;;5116172;28;20019;-73
2023/08/05 03:05:18;;;;;;;8.75;5.82;;;665.90;2432.00;;;;;;5116034;28;20081;-73
2023/08/05 03:07:44;;;;;;;9.77;6.22;;;665.90;2432.00;;;;;;5115835;28;20111;-76
2023/08/05 03:10:10;;;;;;;13.27;6.50;;;665.90;2432.00;;;;;;5115948;28;20071;-73
2023/08/05 03:12:35;;;;;;;7.47;5.95;;;665.70;2432.00;;;;;;5115990;28;20024;-77
2023/08/05 03:15:01;;;;;;;9.60;5.60;;;665.70;2432.00;;;;;;5115892;28;20028;-73
2023/08/05 03:17:27;;;;;;;11.45;5.88;;;665.70;2432.00;;;;;;5116149;28;20083;-72
2023/08/05 03:19:52;;;;;;;16.25;6.28;;;665.80;2432.00;;;;;;5115891;28;20030;-77
2023/08/05 03:22:18;;;;;;;8.93;5.47;;;665.80;2432.00;;;;;;5115791;28;20027;-73
2023/08/05 03:24:44;;;;;;;14.68;6.03;;;665.90;2432.00;;;;;;5116076;28;20047;-74
2023/08/05 03:27:10;;;;;;;8.57;6.13;;;666.00;2432.00;;;;;;5115687;28;20022;-74
2023/08/05 03:29:35;;;;;;;9.77;6.00;;;666.00;2432.00;;;;;;5115585;28;20028;-73
2023/08/05 03:32:01;;;;;;;9.18;6.40;;;666.00;2432.00;;;;;;5115568;28;20020;-76
2023/08/05 03:34:27;;;;;;;8.70;5.93;;;666.00;2432.00;;;;;;5115527;28;20370;-73
2023/08/05 03:36:53;;;;;;;7.32;5.70;;;666.00;2432.00;;;;;;5115508;28;20020;-73
2023/08/05 03:39:19;;;;;;;10.88;6.85;;;666.00;2432.00;;;;;;5115284;28;20032;-74
2023/08/05 03:41:45;;;;;;;12.23;6.40;;;666.00;2432.00;;;;;;5115292;28;20465;-73
2023/08/05 03:44:11;;;;;;;13.02;6.85;;;666.00;2432.00;;;;;;5115309;28;20127;-73
2023/08/05 03:46:37;;;;;;;11.45;7.10;;;666.00;2432.00;;;;;;5115262;28;20020;-74
2023/08/05 03:49:06;;;;;;;11.63;6.88;;;666.00;2432.00;;;;;;5115252;27;20058;-73
2023/08/05 03:51:32;;;;;;;15.25;7.78;;;666.10;2432.00;;;;;;5115393;28;20046;-77
2023/08/05 03:53:58;;;;;;;11.93;7.55;;;666.20;2432.00;;;;;;5115139;28;20034;-76
2023/08/05 03:56:26;;;;;;;10.80;7.28;;;666.20;2432.00;;;;;;5115117;28;20024;-72
2023/08/05 03:58:54;;;;;;;18.15;8.80;;;666.20;2432.00;;;;;;5115236;28;20068;-72
2023/08/05 04:01:21;;;;;;;16.23;8.00;;;666.00;2432.00;;;;;;5115063;28;20548;-74
2023/08/05 04:03:49;;;;;;;12.80;7.22;;;666.00;2432.00;;;;;;5114915;28;20389;-73
2023/08/05 04:06:15;;;;;;;12.15;7.55;;;665.90;2432.00;;;;;;5115073;28;20086;-77
2023/08/05 04:08:41;;;;;;;9.32;7.38;;;665.70;2432.00;;;;;;5114797;28;20110;-73
2023/08/05 04:11:08;;;;;;;9.18;7.40;;;640.90;2432.00;;;;;;5114580;28;20181;-72
2023/08/05 04:13:37;;;;;;;11.35;7.63;;;640.50;2432.00;;;;;;5114790;28;20027;-73
2023/08/05 04:16:04;;;;;;;12.18;6.93;;;640.50;2432.00;;;;;;5114757;28;20012;-76
2023/08/05 04:18:35;;;;;;;10.82;7.32;;;640.60;2432.00;;;;;;5114682;28;20036;-76
2023/08/05 04:21:03;;;;;;;13.45;11.13;;;640.70;2432.00;;;;;;5114687;28;20027;-73
2023/08/05 04:23:31;;;;;;;13.77;10.88;;;640.70;2432.00;;;;;;5114339;28;20026;-71
2023/08/05 04:25:59;;;;;;;10.07;7.55;;;640.50;2432.00;;;;;;5114617;28;20024;-76
2023/08/05 04:28:24;;;;;;;12.80;7.13;;;640.40;2432.00;;;;;;5114586;28;20020;-72
2023/08/05 04:30:52;;;;;;;15.65;10.50;;;640.40;2432.00;;;;;;5114313;28;20023;-72
2023/08/05 04:33:17;;;;;;;12.93;8.70;;;640.70;2432.00;;;;;;5114543;28;20106;-76
2023/08/05 04:35:50;;;;;;;15.07;7.80;;;640.60;2432.00;;;;;;5114280;28;20452;-73
2023/08/05 04:38:18;;;;;;;12.38;7.20;;;640.30;2432.00;;;;;;5114290;28;20024;-76
2023/08/05 04:40:45;;;;;;;11.65;8.38;;;640.40;2432.00;;;;;;5104854;28;20111;-71
2023/08/05 04:43:11;;;;;;;10.75;6.40;;;640.50;2432.00;;;;;;5102099;28;20111;-71
2023/08/05 04:45:37;;;;;;;9.65;6.45;;;640.50;2432.00;;;;;;5101572;27;20032;-70
2023/08/05 04:48:06;;;;;;;12.80;6.80;;;640.50;2432.00;;;;;;5101230;28;20367;-71
2023/08/05 04:50:35;;;;;;;10.88;7.03;;;640.60;2432.00;;;;;;5101468;28;20032;-71
2023/08/05 04:53:00;;;;;;;10.85;6.93;;;640.40;2432.00;;;;;;5098464;28;20024;-71
2023/08/05 04:55:26;;;;;;;11.07;6.63;;;640.50;2432.00;;;;;;5103492;28;20456;-71
2023/08/05 04:57:53;;;;;;;10.02;7.32;;;640.20;2432.00;;;;;;5100728;28;20107;-74
2023/08/05 05:00:19;;;;;;;8.32;6.95;;;640.30;2432.00;;;;;;5099704;28;20024;-72
2023/08/05 05:02:45;;;;;;;11.93;7.68;;;640.20;2432.00;;;;;;5102733;28;20132;-72
2023/08/05 05:05:11;;;;;;;12.57;7.57;;;640.20;2432.00;;;;;;5099984;28;20448;-71
2023/08/05 05:07:37;;;;;;;11.30;7.95;;;640.20;2432.00;;;;;;5101403;28;20027;-72
2023/08/05 05:10:04;;;;;;;9.85;7.43;;;640.40;2432.00;;;;;;5101778;28;20052;-72
2023/08/05 05:12:29;;;;;;;11.63;6.55;;;640.50;2432.00;;;;;;5099062;28;20020;-71
2023/08/05 05:14:55;;;;;;;9.23;6.93;;;640.50;2432.00;;;;;;5106865;28;20511;-71
2023/08/05 05:17:21;;;;;;;10.52;6.95;;;640.60;2432.00;;;;;;5106322;28;20034;-72
2023/08/05 05:19:47;;;;;;;12.25;7.18;;;640.60;2432.00;;;;;;5104599;28;20385;-71
2023/08/05 05:22:19;;;;;;;11.23;7.47;;;640.60;2432.00;;;;;;5099315;28;20113;-70
2023/08/05 05:24:45;;;;;;;12.80;7.47;;;640.70;2432.00;;;;;;5105640;28;20039;-73
2023/08/05 05:27:14;;;;;;;12.15;8.57;;;640.70;2432.00;;;;;;5102850;28;20378;-72
2023/08/05 05:29:41;;;;;;;11.35;8.32;;;640.60;2432.00;;;;;;5101770;28;20032;-72
2023/08/05 05:32:07;;;;;;;10.02;8.32;;;640.60;2432.00;;;;;;5102744;28;20016;-70
2023/08/05 05:34:32;;;;;;;14.07;9.18;;;640.70;2432.00;;;;;;5104455;28;20069;-71
2023/08/05 05:36:58;;;;;;;13.40;9.63;;;640.70;2432.00;;;;;;5104731;28;20039;-70
2023/08/05 05:39:24;;;;;;;14.65;9.30;;;640.80;2432.00;;;;;;5101874;28;20031;-71
2023/08/05 05:41:49;;;;;;;14.93;10.85;;;640.80;2432.00;;;;;;5103812;28;20049;-73
2023/08/05 05:44:15;;;;;;;16.25;9.82;;;665.60;2432.00;;;;;;5101458;28;20489;-71
2023/08/05 05:46:43;;;;;;;13.70;9.70;;;640.90;2432.00;;;;;;5099117;28;20028;-70
2023/08/05 05:49:10;;;;;;;17.25;11.23;;;640.70;2432.00;;;;;;5100015;28;20035;-71
2023/08/05 05:51:35;;;;;;;17.63;11.02;;;640.70;2432.00;;;;;;5105413;28;20027;-69
2023/08/05 05:54:02;;;;;;;14.13;10.13;;;640.70;2432.00;;;;;;5100813;28;20405;-73
2023/08/05 05:56:28;;;;;;;14.15;11.00;;;640.60;2432.00;;;;;;5103015;28;20032;-70
2023/08/05 05:58:54;;;;;;;16.98;10.95;;;640.60;2432.00;;;;;;5104518;28;20032;-71
2023/08/05 06:01:20;;;;;;;15.30;10.70;;;640.70;2432.00;;;;;;5097921;28;20019;-71
2023/08/05 06:03:46;;;;;;;17.13;10.70;;;640.60;2432.00;;;;;;5102984;28;20032;-72
2023/08/05 06:06:12;;;;;;;15.93;10.88;;;640.70;2432.00;;;;;;5101774;28;20040;-70
2023/08/05 06:08:38;;;;;;;20.65;10.38;;;640.20;2432.00;;;;;;5098730;28;20558;-75
2023/08/05 06:11:05;;;;;;;18.02;11.30;;;640.70;2432.00;;;;;;5103942;28;20071;-71
2023/08/05 06:13:31;;;;;;;13.95;11.30;;;640.60;2432.00;;;;;;5102766;28;20035;-71
2023/08/05 06:15:56;;;;;;;14.18;11.07;;;640.80;2432.00;;;;;;5101067;28;20074;-70
2023/08/05 06:18:22;;;;;;;20.80;12.80;;;665.60;2432.00;;;;;;5106121;28;20412;-72
2023/08/05 06:20:48;;;;;;;14.10;10.35;;;665.60;2432.00;;;;;;5107477;28;20108;-70
2023/08/05 06:23:15;;;;;;;16.27;11.57;;;640.90;2432.00;;;;;;5102051;28;20062;-71
2023/08/05 06:25:41;;;;;;;21.98;12.98;;;640.70;2432.00;;;;;;5106488;28;20024;-70
2023/08/05 06:28:08;;;;;;;17.10;11.43;;;640.70;2432.00;;;;;;5115362;28;20019;-70
2023/08/05 06:30:36;;;;;;;19.33;10.63;;;640.80;2432.00;;;;;;5105544;28;20055;-70
2023/08/05 06:33:02;;;;;;;16.80;11.85;;;640.80;2432.00;;;;;;5099623;28;20024;-75
2023/08/05 06:35:28;;;;;;;16.65;11.60;;;665.60;2432.00;;;;;;5110703;27;20122;-70
2023/08/05 06:37:53;;;;;;;14.27;11.48;;;665.60;2432.00;;;;;;5102987;28;20449;-71
2023/08/05 06:40:19;;;;;;;13.90;10.40;;;665.80;2432.00;;;;;;5104683;28;20032;-74
2023/08/05 06:42:45;;;;;;;13.50;9.70;;;665.90;2432.00;;;;;;5103049;28;20038;-71
2023/08/05 06:45:10;;;;;;;15.52;10.70;;;666.00;2432.00;;;;;;5104871;28;20048;-71
2023/08/05 06:47:36;;;;;;;16.55;11.13;;;666.00;2432.00;;;;;;5109642;28;20103;-70
2023/08/05 06:50:06;;;;;;;15.57;10.95;;;666.10;2432.00;;;;;;5108039;28;20081;-72
2023/08/05 06:52:31;;;;;;;16.10;10.85;;;666.20;2432.00;;;;;;5106101;28;20024;-72
2023/08/05 06:55:00;;;;;;;17.17;11.93;;;666.10;2432.00;;;;;;5099166;28;20028;-70
2023/08/05 06:57:26;;;;;;;19.40;11.38;;;666.20;2432.00;;;;;;5107506;28;20024;-73
2023/08/05 06:59:52;;;;;;;15.50;10.85;;;666.10;2432.00;;;;;;5105912;28;20137;-70
2023/08/05 07:02:18;;;;;;;13.82;10.90;;;666.30;2432.00;;;;;;5102555;28;20035;-71
2023/08/05 07:04:43;;;;;;;14.43;11.90;;;666.30;2432.00;;;;;;5102543;28;20043;-70
2023/08/05 07:07:09;;;;;;;14.63;11.32;;;666.30;2432.00;;;;;;5100462;28;20141;-69
2023/08/05 07:09:35;;;;;;;15.52;11.77;;;666.40;2432.00;;;;;;5107352;28;20123;-71
2023/08/05 07:12:01;;;;;;;13.93;10.65;;;666.40;2432.00;;;;;;5102136;28;20118;-71
2023/08/05 07:14:26;;;;;;;16.25;11.35;;;691.30;2432.00;;;;;;5099512;28;20466;-70
2023/08/05 07:16:52;;;;;;;13.55;11.40;;;691.30;2432.00;;;;;;5105709;28;20051;-70
2023/08/05 07:19:18;;;;;;;13.60;11.02;;;691.20;2432.00;;;;;;5105886;28;20024;-73
2023/08/05 07:21:44;;;;;;;14.70;11.35;;;691.30;2432.00;;;;;;5100700;28;20473;-71
2023/08/05 07:24:09;;;;;;;15.48;11.07;;;691.40;2432.00;;;;;;5108416;28;20101;-71
2023/08/05 07:26:35;;;;;;;22.52;12.32;;;691.50;2432.00;;;;;;5105153;28;20030;-73
2023/08/05 07:29:00;;;;;;;14.43;10.75;;;691.60;2432.00;;;;;;5114294;28;20090;-74
2023/08/05 07:31:26;;;;;;;11.75;9.65;;;691.90;2432.00;;;;;;5100185;28;20058;-73
2023/08/05 07:33:52;;;;;;;13.02;10.88;;;717.10;2432.00;;;;;;5105389;28;20383;-75
2023/08/05 07:36:18;;;;;;;15.23;10.30;;;717.30;2432.00;;;;;;5110788;28;20081;-71
2023/08/05 07:38:46;;;;;;;14.95;11.90;;;717.20;2432.00;;;;;;5106655;28;20031;-73
2023/08/05 07:41:13;;;;;;;14.02;10.43;;;717.50;2432.00;;;;;;5107178;28;20039;-71
2023/08/05 07:43:40;;;;;;;12.20;10.52;;;717.70;2432.00;;;;;;5109008;28;20031;-70
2023/08/05 07:46:06;;;;;;;11.27;10.07;;;717.70;2432.00;;;;;;5104177;28;20110;-70
2023/08/05 07:48:36;;;;;;;11.65;10.00;;;717.70;2432.00;;;;;;5105153;28;20181;-71
2023/08/05 07:51:05;;;;;;;11.63;9.75;;;742.70;2432.00;;;;;;5101361;28;20501;-71
2023/08/05 07:53:30;;;;;;;13.23;9.30;;;742.60;2432.00;;;;;;5104987;28;20073;-70
2023/08/05 07:55:58;;;;;;;19.10;10.65;;;742.90;2432.00;;;;;;5104956;28;20035;-70
2023/08/05 07:58:25;;;;;;;12.68;9.52;;;742.90;2432.00;;;;;;5096786;28;20111;-70
2023/08/05 08:00:59;;;;;;;13.73;10.30;;;743.10;2432.00;;;;;;5101079;28;20020;-70
2023/08/05 08:03:29;;;;;;;12.17;9.97;;;743.00;2432.00;;;;;;5105007;28;20020;-70
2023/08/05 08:05:54;;;;;;;12.13;8.75;;;743.30;2432.00;;;;;;5099795;28;20107;-72
2023/08/05 08:08:21;;;;;;;10.27;9.20;;;768.30;2432.00;;;;;;5102695;28;20103;-77
2023/08/05 08:10:47;;;;;;;11.48;9.27;;;768.40;2432.00;;;;;;5103449;28;20501;-73
2023/08/05 08:13:12;;;;;;;10.80;9.35;;;768.40;2432.00;;;;;;5100340;28;20020;-72
2023/08/05 08:15:38;;;;;;;10.70;9.25;;;768.40;2432.00;;;;;;5103266;28;20038;-72
2023/08/05 08:18:04;;;;;;;12.23;8.48;;;768.80;2432.00;;;;;;5106741;27;20034;-71
2023/08/05 08:20:29;;;;;;;11.85;8.45;;;768.90;2432.00;;;;;;5108029;28;20466;-72
2023/08/05 08:22:55;;;;;;;10.35;9.30;;;793.70;2432.00;;;;;;5098685;28;20482;-73
2023/08/05 08:25:21;;;;;;;12.48;9.02;;;793.90;2432.00;;;;;;5109158;28;20385;-73
2023/08/05 08:27:46;;;;;;;14.73;9.32;;;793.80;2432.00;;;;;;5103791;28;20355;-72
2023/08/05 08:30:12;;;;;;;10.98;9.65;;;794.40;2432.00;;;;;;5108021;28;20063;-76
2023/08/05 08:32:38;;;;;;;16.35;9.15;;;819.40;2432.00;;;;;;5106432;28;20023;-72
2023/08/05 08:35:05;;;;;;;78.57;14.15;;;819.30;2432.00;;;;;;5103423;28;20031;-75
2023/08/05 08:37:30;;;;;;;13.48;11.00;;;819.70;2432.00;;;;;;5103559;28;20154;-77
2023/08/05 08:39:56;;;;;;;10.98;8.70;;;819.40;2432.00;;;;;;5104378;28;20065;-73
2023/08/05 08:42:25;;;;;;;12.63;9.43;;;794.50;2432.00;;;;;;5106274;28;20024;-71
2023/08/05 08:44:52;;;;;;;11.90;9.57;;;794.10;2432.00;;;;;;5103153;28;20032;-72
2023/08/05 08:47:19;;;;;;;10.57;9.35;;;794.00;2432.00;;;;;;5105494;28;20020;-73
2023/08/05 08:49:47;;;;;;;20.25;9.68;;;793.90;2432.00;;;;;;5097916;28;20028;-73
2023/08/05 08:52:16;;;;;;;13.15;8.95;;;793.80;2432.00;;;;;;5109220;28;20042;-72
2023/08/05 08:54:43;;;;;;;20.30;10.70;;;768.90;2432.00;;;;;;5102517;28;20385;-75
2023/08/05 08:57:09;;;;;;;14.90;10.52;;;768.70;2432.00;;;;;;5103549;28;20031;-77
2023/08/05 08:59:35;;;;;;;14.43;9.02;;;768.70;2432.00;;;;;;5112750;28;20031;-76
2023/08/05 09:02:03;;;;;;;15.18;10.05;;;768.90;2432.00;;;;;;5105367;28;20028;-74
2023/08/05 09:04:33;;;;;;;16.02;10.52;;;793.70;2432.00;;;;;;5096320;28;20497;-73
2023/08/05 09:06:59;;;;;;;11.35;9.30;;;794.20;2432.00;;;;;;5097475;28;20024;-74
2023/08/05 09:09:25;;;;;;;12.50;9.43;;;794.10;2432.00;;;;;;5099356;28;20043;-78
2023/08/05 09:11:50;;;;;;;12.38;8.77;;;793.80;2432.00;;;;;;5098788;28;20448;-80
2023/08/05 09:14:16;;;;;;;13.65;10.63;;;794.00;2432.00;;;;;;5098655;28;20024;-75
2023/08/05 09:16:59;;;;;;;14.27;9.45;;;794.40;2432.00;;;;;;5100993;28;20069;-79
2023/08/05 09:19:28;;;;;;;13.68;8.75;;;819.30;2380.80;;;;;;5103747;28;20020;-73
2023/08/05 09:21:55;;;;;;;21.20;9.45;;;819.60;2380.80;;;;;;5099108;28;20501;-73
2023/08/05 09:24:25;;;;;;;18.70;9.75;;;819.60;2355.20;;;;;;5105156;28;20497;-74
2023/08/05 09:26:58;;;;;;;10.10;8.30;;;819.70;2355.20;;;;;;5096944;28;20020;-73
2023/08/05 09:29:26;;;;;;;13.50;9.30;;;819.40;2329.60;;;;;;5107266;28;20052;-73
2023/08/05 09:31:57;;;;;;;12.00;9.15;;;819.20;2406.40;;;;;;5103465;28;20043;-74
2023/08/05 09:34:34;;;;;;;13.57;9.52;;;819.90;2380.80;;;;;;5097481;28;20024;-76
2023/08/05 09:37:01;;;;;;;12.98;9.25;;;819.40;2278.40;;;;;;5101760;28;20023;-74
2023/08/05 09:39:42;;;;;;;12.95;8.43;;;794.50;2380.80;;;;;;5110351;28;20065;-72
2023/08/05 09:42:20;;;;;;;12.93;8.63;;;819.30;2380.80;;;;;;5104635;28;20024;-76
2023/08/05 09:44:47;;;;;;;12.30;8.55;;;794.30;2432.00;;;;;;5100435;28;20023;-75
2023/08/05 09:47:17;;;;;;;14.73;8.88;;;794.10;2432.00;;;;;;5104208;28;20016;-72
2023/08/05 09:49:48;;;;;;;10.90;8.93;;;794.50;2380.80;;;;;;5103605;28;20081;-71
2023/08/05 09:52:17;;;;;;;10.00;8.50;;;794.40;2432.00;;;;;;5102456;28;20058;-73
2023/08/05 09:55:04;;;;;;;16.98;8.45;;;819.20;2432.00;;;;;;5105903;27;20027;-71
2023/08/05 09:57:31;;;;;;;16.05;7.95;;;819.40;2380.80;;;;;;5105246;28;20024;-73
2023/08/05 10:00:00;;;;;;;14.45;8.60;;;819.20;2380.80;;;;;;5103946;28;20051;-75
2023/08/05 10:02:26;;;;;;;20.65;9.75;;;819.50;2355.20;;;;;;5098153;28;20091;-72
2023/08/05 10:04:54;;;;;;;31.88;14.00;;;819.80;2329.60;;;;;;5099235;28;20397;-70
2023/08/05 10:07:24;;;;;;;16.20;8.43;;;820.10;2252.80;;;;;;5105547;28;20031;-78
2023/08/05 10:09:50;;;;;;;12.40;8.68;;;844.90;2176.00;;;;;;5098394;28;20044;-76
2023/08/05 10:12:26;;;;;;;13.00;8.00;;;844.90;2150.40;;;;;;5109400;28;20032;-73
2023/08/05 10:14:54;;;;;;;12.43;8.23;;;844.80;2201.60;;;;;;5098589;28;20047;-76
2023/08/05 10:17:20;;;;;;;11.75;8.30;;;844.90;2201.60;;;;;;5101819;28;20032;-74
2023/08/05 10:19:50;;;;;;;15.38;8.40;;;844.90;2176.00;;;;;;5102031;28;20474;-74
2023/08/05 10:22:22;;;;;;;14.15;8.30;;;845.20;2150.40;;;;;;5106051;28;20107;-73
2023/08/05 10:24:50;;;;;;;14.73;8.65;;;844.90;2201.60;;;;;;5100088;28;20027;-75
2023/08/05 10:27:16;;;;;;;14.23;9.30;;;820.10;2176.00;;;;;;5103147;28;20015;-75
2023/08/05 10:29:52;;;;;;;13.68;8.95;;;819.90;2201.60;;;;;;5106909;28;20031;-78
2023/08/05 10:32:28;;;;;;;14.15;9.38;;;820.00;2150.40;;;;;;5100078;28;20024;-74
2023/08/05 10:35:26;;;;;;;17.50;9.20;;;820.00;2201.60;;;;;;5102363;28;20122;-73
2023/08/05 10:38:24;;;;;;;18.17;16.15;;;845.50;2099.20;;;;;;5102453;28;20028;-74
2023/08/05 10:41:02;;;;;;;13.60;8.68;;;844.80;2150.40;;;;;;5099506;28;20051;-73
2023/08/05 10:43:31;;;;;;;12.18;9.07;;;820.00;2124.80;;;;;;5097854;28;20028;-73
2023/08/05 10:46:17;;;;;;;17.65;9.18;;;819.80;2176.00;;;;;;5099693;28;20461;-73
2023/08/05 10:48:48;;;;;;;13.60;9.13;;;819.70;2227.20;;;;;;5099018;28;20035;-73
2023/08/05 10:51:16;;;;;;;12.63;8.65;;;819.40;2278.40;;;;;;5103973;28;20048;-77
2023/08/05 10:53:59;;;;;;;11.43;9.93;;;819.30;2329.60;;;;;;5108390;28;20508;-74
2023/08/05 10:56:32;;;;;;;15.25;9.18;;;794.50;2355.20;;;;;;5098422;28;20028;-72
2023/08/05 10:59:02;;;;;;;14.13;9.65;;;819.20;2355.20;;;;;;5099749;28;20028;-75
2023/08/05 11:01:56;;;;;;;19.20;9.80;;;794.50;2406.40;;;;;;5107979;28;20016;-74
2023/08/05 11:04:26;;;;;;;14.75;10.63;;;794.50;2380.80;;;;;;5103336;28;20043;-71
2023/08/05 11:06:54;;;;;;;12.63;10.25;;;794.50;2380.80;;;;;;5098528;28;20012;-71
2023/08/05 11:09:20;;;;;;;13.40;9.38;;;819.30;2355.20;;;;;;5106428;28;20047;-71
2023/08/05 11:11:49;;;;;;;13.75;10.68;;;819.50;2380.80;;;;;;5103483;28;20024;-77
2023/08/05 11:14:16;;;;;;;17.15;9.43;;;819.80;2304.00;;;;;;5104328;28;20012;-74
2023/08/05 11:16:48;;;;;;;16.45;10.20;;;819.80;2329.60;;;;;;5109168;28;20030;-70
2023/08/05 11:19:15;;;;;;;15.18;10.20;;;819.90;2329.60;;;;;;5105652;28;20012;-72
2023/08/05 11:21:44;;;;;;;15.00;9.82;;;820.00;2329.60;;;;;;5100909;28;20061;-71
2023/08/05 11:24:19;;;;;;;18.73;10.60;;;844.90;2278.40;;;;;;5108174;28;20519;-76
2023/08/05 12:25:52;;;;;;;14.20;10.80;;;768.70;2432.00;;;;;;5059414;28;20810;-70
2023/08/05 12:28:18;;;;;;;14.48;11.73;;;768.50;2432.00;;;;;;5049906;28;20032;-72
2023/08/05 12:30:44;;;;;;;12.93;11.63;;;768.40;2432.00;;;;;;5048420;28;20026;-71
2023/08/05 12:33:12;;;;;;;16.08;11.32;;;768.40;2432.00;;;;;;5049546;28;20128;-71
2023/08/05 12:35:37;;;;;;;14.63;11.73;;;768.40;2432.00;;;;;;5042926;28;20026;-72
2023/08/05 12:38:03;;;;;;;12.95;11.30;;;768.40;2432.00;;;;;;5049214;28;20024;-72
2023/08/05 12:40:28;;;;;;;13.38;11.60;;;768.30;2432.00;;;;;;5049395;28;20523;-72
2023/08/05 12:42:54;;;;;;;12.30;11.10;;;768.30;2432.00;;;;;;5049510;28;20024;-72
2023/08/05 12:45:20;;;;;;;14.23;11.63;;;768.20;2432.00;;;;;;5050099;28;20109;-71
2023/08/05 12:47:46;;;;;;;17.40;11.25;;;768.10;2432.00;;;;;;5049335;28;20489;-71
2023/08/05 12:50:12;;;;;;;15.18;12.43;;;768.10;2432.00;;;;;;5045046;28;20025;-71
2023/08/05 12:52:37;;;;;;;20.60;12.45;;;768.00;2432.00;;;;;;5049559;28;20394;-71
2023/08/05 12:55:03;;;;;;;16.70;12.07;;;768.00;2432.00;;;;;;5049301;28;20037;-71
2023/08/05 12:57:30;;;;;;;16.13;11.27;;;768.00;2432.00;;;;;;5049957;28;20148;-72
2023/08/05 12:59:56;;;;;;;15.60;12.60;;;743.20;2432.00;;;;;;5045949;28;20026;-72
2023/08/05 13:02:23;;;;;;;17.92;11.07;;;743.30;2432.00;;;;;;5049043;28;20548;-71
2023/08/05 14:23:50;;;;;;;8.80;6.57;;;538.20;2406.40;;;;;;5100282;27;20491;-73
2023/08/05 14:26:16;;;;;;;10.55;7.53;;;563.60;2432.00;;;;;;5097612;28;20032;-71